Terminal Aerodrome Forecast
Issued by NWS Albany, NY

Home | Current Version | Previous Version | Text Only | Print | Product List | Glossary On
Versions: 1 2 3 4 5 6 7 8 9 10 11 12 13 14 15 16 17 18 19
000
FTUS41 KALY 020500 RRA
TAFALB
TAF
KALB 020546Z 0206/0306 18005KT P6SM BKN080
      TEMPO 0207/0211 4SM BR
     FM021500 20008KT P6SM SCT060
     FM022100 21008KT P6SM VCSH BKN060 PROB30 0221/0303 3SM -TSRA BR
      OVC025CB
     FM030300 27007KT P6SM VCSH BKN060=

USA.gov is the U.S. government's official web portal to all federal, state and local government web resources and services.